sensor_id;sensor_type;location;lat;lon;timestamp;pressure;altitude;pressure_sealevel;temperature;humidity
14232;BME280;7200;52.194;9.900;2022-12-07T00:01:30;100384.41;;;3.37;100.00
14232;BME280;7200;52.194;9.900;2022-12-07T00:03:57;100388.69;;;3.42;100.00
14232;BME280;7200;52.194;9.900;2022-12-07T00:06:51;100380.03;;;3.42;100.00
14232;BME280;7200;52.194;9.900;2022-12-07T00:09:16;100406.06;;;3.46;100.00
14232;BME280;7200;52.194;9.900;2022-12-07T00:11:42;100374.81;;;3.40;100.00
14232;BME280;7200;52.194;9.900;2022-12-07T00:14:11;100384.31;;;3.49;100.00
14232;BME280;7200;52.194;9.900;2022-12-07T00:16:37;100386.03;;;3.51;100.00
14232;BME280;7200;52.194;9.900;2022-12-07T00:19:03;100378.28;;;3.41;100.00
14232;BME280;7200;52.194;9.900;2022-12-07T00:21:32;100380.88;;;3.44;100.00
14232;BME280;7200;52.194;9.900;2022-12-07T00:23:57;100383.47;;;3.48;100.00
14232;BME280;7200;52.194;9.900;2022-12-07T00:26:35;100373.03;;;3.45;100.00
14232;BME280;7200;52.194;9.900;2022-12-07T00:29:03;100381.72;;;3.46;100.00
14232;BME280;7200;52.194;9.900;2022-12-07T00:31:32;100384.34;;;3.46;100.00
14232;BME280;7200;52.194;9.900;2022-12-07T00:34:00;100383.41;;;3.50;100.00
14232;BME280;7200;52.194;9.900;2022-12-07T00:36:25;100379.03;;;3.55;100.00
14232;BME280;7200;52.194;9.900;2022-12-07T00:38:51;100377.34;;;3.48;100.00
14232;BME280;7200;52.194;9.900;2022-12-07T00:41:18;100366.06;;;3.49;100.00
14232;BME280;7200;52.194;9.900;2022-12-07T00:43:45;100363.50;;;3.43;100.00
14232;BME280;7200;52.194;9.900;2022-12-07T00:46:11;100360.88;;;3.44;100.00
14232;BME280;7200;52.194;9.900;2022-12-07T00:48:37;100360.84;;;3.46;100.00
14232;BME280;7200;52.194;9.900;2022-12-07T00:51:03;100359.09;;;3.49;100.00
14232;BME280;7200;52.194;9.900;2022-12-07T00:53:29;100360.78;;;3.52;100.00
14232;BME280;7200;52.194;9.900;2022-12-07T00:55:54;100353.84;;;3.53;100.00
14232;BME280;7200;52.194;9.900;2022-12-07T00:58:22;100346.88;;;3.53;100.00
14232;BME280;7200;52.194;9.900;2022-12-07T01:00:47;100345.13;;;3.54;100.00
14232;BME280;7200;52.194;9.900;2022-12-07T01:03:14;100342.53;;;3.54;100.00
14232;BME280;7200;52.194;9.900;2022-12-07T01:05:39;100343.38;;;3.57;100.00
14232;BME280;7200;52.194;9.900;2022-12-07T01:08:06;100337.25;;;3.60;100.00
14232;BME280;7200;52.194;9.900;2022-12-07T01:10:31;100338.09;;;3.63;100.00
14232;BME280;7200;52.194;9.900;2022-12-07T01:12:58;100333.75;;;3.64;100.00
14232;BME280;7200;52.194;9.900;2022-12-07T01:15:24;100330.31;;;3.62;100.00
14232;BME280;7200;52.194;9.900;2022-12-07T01:17:50;100335.44;;;3.69;100.00
14232;BME280;7200;52.194;9.900;2022-12-07T01:20:15;100328.47;;;3.67;100.00
14232;BME280;7200;52.194;9.900;2022-12-07T01:22:42;100331.06;;;3.70;100.00
14232;BME280;7200;52.194;9.900;2022-12-07T01:25:09;100328.50;;;3.65;100.00
14232;BME280;7200;52.194;9.900;2022-12-07T01:27:35;100326.72;;;3.69;100.00
14232;BME280;7200;52.194;9.900;2022-12-07T01:30:01;100331.94;;;3.70;100.00
14232;BME280;7200;52.194;9.900;2022-12-07T01:32:26;100323.28;;;3.65;100.00
14232;BME280;7200;52.194;9.900;2022-12-07T01:34:52;100325.84;;;3.72;100.00
14232;BME280;7200;52.194;9.900;2022-12-07T01:37:18;100326.69;;;3.74;100.00
14232;BME280;7200;52.194;9.900;2022-12-07T01:39:43;100311.06;;;3.70;100.00
14232;BME280;7200;52.194;9.900;2022-12-07T01:42:12;100311.91;;;3.71;100.00
14232;BME280;7200;52.194;9.900;2022-12-07T01:47:41;100312.81;;;3.68;100.00
14232;BME280;7200;52.194;9.900;2022-12-07T01:50:08;100308.50;;;3.67;100.00
14232;BME280;7200;52.194;9.900;2022-12-07T01:52:35;100308.53;;;3.64;100.00
14232;BME280;7200;52.194;9.900;2022-12-07T01:55:04;100301.59;;;3.62;100.00
14232;BME280;7200;52.194;9.900;2022-12-07T01:57:33;100299.91;;;3.56;100.00
14232;BME280;7200;52.194;9.900;2022-12-07T02:00:00;100312.97;;;3.55;100.00
14232;BME280;7200;52.194;9.900;2022-12-07T02:02:29;100321.56;;;3.64;100.00
14232;BME280;7200;52.194;9.900;2022-12-07T02:04:57;100317.25;;;3.60;100.00
14232;BME280;7200;52.194;9.900;2022-12-07T02:07:24;100314.66;;;3.60;100.00
14232;BME280;7200;52.194;9.900;2022-12-07T02:09:50;100304.25;;;3.56;100.00
14232;BME280;7200;52.194;9.900;2022-12-07T02:12:16;100313.75;;;3.60;100.00
14232;BME280;7200;52.194;9.900;2022-12-07T02:14:41;100322.50;;;3.59;100.00
14232;BME280;7200;52.194;9.900;2022-12-07T02:17:28;100323.34;;;3.61;100.00
14232;BME280;7200;52.194;9.900;2022-12-07T02:20:20;100313.75;;;3.60;100.00
14232;BME280;7200;52.194;9.900;2022-12-07T02:23:10;100327.69;;;3.62;100.00
14232;BME280;7200;52.194;9.900;2022-12-07T02:26:04;100332.84;;;3.69;100.00
14232;BME280;7200;52.194;9.900;2022-12-07T02:31:31;100320.66;;;3.68;100.00
14232;BME280;7200;52.194;9.900;2022-12-07T02:34:04;100327.56;;;3.71;100.00
14232;BME280;7200;52.194;9.900;2022-12-07T02:36:37;100325.84;;;3.72;100.00
14232;BME280;7200;52.194;9.900;2022-12-07T02:39:22;100318.88;;;3.70;100.00
14232;BME280;7200;52.194;9.900;2022-12-07T02:41:53;100309.44;;;3.62;100.00
14232;BME280;7200;52.194;9.900;2022-12-07T02:44:23;100328.47;;;3.70;100.00
14232;BME280;7200;52.194;9.900;2022-12-07T02:46:55;100327.63;;;3.68;100.00
14232;BME280;7200;52.194;9.900;2022-12-07T02:49:24;100314.56;;;3.68;100.00
14232;BME280;7200;52.194;9.900;2022-12-07T02:51:52;100315.41;;;3.70;100.00
14232;BME280;7200;52.194;9.900;2022-12-07T02:54:19;100315.44;;;3.68;100.00
14232;BME280;7200;52.194;9.900;2022-12-07T03:09:46;100307.78;;;3.51;100.00
14232;BME280;7200;52.194;9.900;2022-12-07T03:12:24;100307.78;;;3.51;100.00
14232;BME280;7200;52.194;9.900;2022-12-07T03:15:02;100307.75;;;3.53;100.00
14232;BME280;7200;52.194;9.900;2022-12-07T03:17:33;100301.72;;;3.49;100.00
14232;BME280;7200;52.194;9.900;2022-12-07T03:20:02;100308.63;;;3.54;100.00
14232;BME280;7200;52.194;9.900;2022-12-07T03:22:31;100309.50;;;3.53;100.00
14232;BME280;7200;52.194;9.900;2022-12-07T03:24:59;100300.84;;;3.50;100.00
14232;BME280;7200;52.194;9.900;2022-12-07T03:27:31;100301.66;;;3.54;100.00
14232;BME280;7200;52.194;9.900;2022-12-07T03:30:06;100294.72;;;3.53;100.00
14232;BME280;7200;52.194;9.900;2022-12-07T03:32:40;100294.72;;;3.53;100.00
14232;BME280;7200;52.194;9.900;2022-12-07T03:35:18;100296.44;;;3.54;100.00
14232;BME280;7200;52.194;9.900;2022-12-07T03:37:51;100292.97;;;3.54;100.00
14232;BME280;7200;52.194;9.900;2022-12-07T03:40:43;100283.44;;;3.53;100.00
14232;BME280;7200;52.194;9.900;2022-12-07T03:43:10;100285.16;;;3.52;100.00
14232;BME280;7200;52.194;9.900;2022-12-07T03:46:20;100290.34;;;3.58;100.00
14232;BME280;7200;52.194;9.900;2022-12-07T03:51:24;100275.56;;;3.56;100.00
14232;BME280;7200;52.194;9.900;2022-12-07T03:53:59;100281.59;;;3.61;100.00
14232;BME280;7200;52.194;9.900;2022-12-07T03:56:27;100278.97;;;3.62;100.00
14232;BME280;7200;52.194;9.900;2022-12-07T03:58:54;100272.94;;;3.56;100.00
14232;BME280;7200;52.194;9.900;2022-12-07T04:01:19;100262.56;;;3.51;100.00
14232;BME280;7200;52.194;9.900;2022-12-07T04:03:44;100278.16;;;3.56;100.00
14232;BME280;7200;52.194;9.900;2022-12-07T04:06:10;100263.41;;;3.56;100.00
14232;BME280;7200;52.194;9.900;2022-12-07T04:08:35;100264.25;;;3.57;100.00
14232;BME280;7200;52.194;9.900;2022-12-07T04:11:01;100254.75;;;3.51;100.00
14232;BME280;7200;52.194;9.900;2022-12-07T04:13:26;100256.44;;;3.54;100.00
14232;BME280;7200;52.194;9.900;2022-12-07T04:15:51;100246.09;;;3.49;100.00
14232;BME280;7200;52.194;9.900;2022-12-07T04:18:17;100247.88;;;3.42;100.00
14232;BME280;7200;52.194;9.900;2022-12-07T04:20:42;100246.16;;;3.41;100.00
14232;BME280;7200;52.194;9.900;2022-12-07T04:23:07;100244.38;;;3.45;100.00
14232;BME280;7200;52.194;9.900;2022-12-07T04:25:33;100249.53;;;3.49;100.00
14232;BME280;7200;52.194;9.900;2022-12-07T04:27:58;100248.59;;;3.57;100.00
14232;BME280;7200;52.194;9.900;2022-12-07T04:30:23;100244.25;;;3.56;100.00
14232;BME280;7200;52.194;9.900;2022-12-07T04:32:48;100244.25;;;3.56;100.00
14232;BME280;7200;52.194;9.900;2022-12-07T04:35:14;100245.09;;;3.59;100.00
14232;BME280;7200;52.194;9.900;2022-12-07T04:37:39;100244.22;;;3.60;100.00
14232;BME280;7200;52.194;9.900;2022-12-07T04:40:07;100233.78;;;3.59;100.00
14232;BME280;7200;52.194;9.900;2022-12-07T04:42:33;100235.59;;;3.54;100.00
14232;BME280;7200;52.194;9.900;2022-12-07T04:44:58;100250.31;;;3.59;100.00
14232;BME280;7200;52.194;9.900;2022-12-07T04:47:23;100232.91;;;3.60;100.00
14232;BME280;7200;52.194;9.900;2022-12-07T04:49:48;100234.66;;;3.61;100.00
14232;BME280;7200;52.194;9.900;2022-12-07T04:52:14;100231.13;;;3.65;100.00
14232;BME280;7200;52.194;9.900;2022-12-07T04:54:39;100230.25;;;3.66;100.00
14232;BME280;7200;52.194;9.900;2022-12-07T04:57:04;100217.28;;;3.58;100.00
14232;BME280;7200;52.194;9.900;2022-12-07T04:59:29;100214.59;;;3.64;100.00
14232;BME280;7200;52.194;9.900;2022-12-07T05:01:55;100217.22;;;3.64;100.00
14232;BME280;7200;52.194;9.900;2022-12-07T05:04:20;100220.63;;;3.69;100.00
14232;BME280;7200;52.194;9.900;2022-12-07T05:06:45;100205.94;;;3.61;100.00
14232;BME280;7200;52.194;9.900;2022-12-07T05:09:10;100211.16;;;3.62;100.00
14232;BME280;7200;52.194;9.900;2022-12-07T05:11:36;100203.34;;;3.61;100.00
14232;BME280;7200;52.194;9.900;2022-12-07T05:14:16;100206.78;;;3.63;100.00
14232;BME280;7200;52.194;9.900;2022-12-07T05:16:43;100211.97;;;3.67;100.00
14232;BME280;7200;52.194;9.900;2022-12-07T05:19:09;100204.19;;;3.61;100.00
14232;BME280;7200;52.194;9.900;2022-12-07T05:21:35;100202.47;;;3.62;100.00
14232;BME280;7200;52.194;9.900;2022-12-07T05:24:01;100196.47;;;3.54;100.00
14232;BME280;7200;52.194;9.900;2022-12-07T05:26:27;100194.75;;;3.51;100.00
14232;BME280;7200;52.194;9.900;2022-12-07T05:28:53;100194.69;;;3.57;100.00
14232;BME280;7200;52.194;9.900;2022-12-07T05:31:19;100192.97;;;3.56;100.00
14232;BME280;7200;52.194;9.900;2022-12-07T05:33:44;100188.56;;;3.60;100.00
14232;BME280;7200;52.194;9.900;2022-12-07T05:36:09;100183.34;;;3.60;100.00
14232;BME280;7200;52.194;9.900;2022-12-07T05:38:34;100172.09;;;3.56;100.00
14232;BME280;7200;52.194;9.900;2022-12-07T05:41:05;100188.53;;;3.63;100.00
14232;BME280;7200;52.194;9.900;2022-12-07T05:43:30;100182.50;;;3.58;100.00
14232;BME280;7200;52.194;9.900;2022-12-07T05:45:56;100184.25;;;3.59;100.00
14232;BME280;7200;52.194;9.900;2022-12-07T05:48:21;100176.50;;;3.53;100.00
14232;BME280;7200;52.194;9.900;2022-12-07T05:50:48;100173.13;;;3.43;100.00
14232;BME280;7200;52.194;9.900;2022-12-07T05:53:13;100172.16;;;3.51;100.00
14232;BME280;7200;52.194;9.900;2022-12-07T05:55:39;100158.34;;;3.43;100.00
14232;BME280;7200;52.194;9.900;2022-12-07T05:58:04;100163.53;;;3.45;100.00
14232;BME280;7200;52.194;9.900;2022-12-07T06:00:48;100182.56;;;3.53;100.00
14232;BME280;7200;52.194;9.900;2022-12-07T06:03:13;100179.88;;;3.58;100.00
14232;BME280;7200;52.194;9.900;2022-12-07T06:05:38;100172.13;;;3.53;100.00
14232;BME280;7200;52.194;9.900;2022-12-07T06:08:04;100172.97;;;3.55;100.00
14232;BME280;7200;52.194;9.900;2022-12-07T06:10:29;100177.25;;;3.61;100.00
14232;BME280;7200;52.194;9.900;2022-12-07T06:12:54;100177.19;;;3.65;100.00
14232;BME280;7200;52.194;9.900;2022-12-07T06:15:19;100178.06;;;3.67;100.00
14232;BME280;7200;52.194;9.900;2022-12-07T06:17:45;100174.63;;;3.62;100.00
14232;BME280;7200;52.194;9.900;2022-12-07T06:20:10;100172.88;;;3.63;100.00
14232;BME280;7200;52.194;9.900;2022-12-07T06:22:35;100181.41;;;3.77;100.00
14232;BME280;7200;52.194;9.900;2022-12-07T06:25:00;100177.13;;;3.72;100.00
14232;BME280;7200;52.194;9.900;2022-12-07T06:27:26;100193.44;;;3.87;100.00
14232;BME280;7200;52.194;9.900;2022-12-07T06:29:51;100185.59;;;3.89;100.00
14232;BME280;7200;52.194;9.900;2022-12-07T06:32:17;100179.56;;;3.85;100.00
14232;BME280;7200;52.194;9.900;2022-12-07T06:34:42;100177.84;;;3.84;100.00
14232;BME280;7200;52.194;9.900;2022-12-07T06:37:07;100176.03;;;3.88;100.00
14232;BME280;7200;52.194;9.900;2022-12-07T06:39:33;100180.38;;;3.90;100.00
14232;BME280;7200;52.194;9.900;2022-12-07T06:41:58;100171.72;;;3.85;100.00
14232;BME280;7200;52.194;9.900;2022-12-07T06:44:24;100179.50;;;3.90;100.00
14232;BME280;7200;52.194;9.900;2022-12-07T06:46:50;100163.91;;;3.82;100.00
14232;BME280;7200;52.194;9.900;2022-12-07T06:49:16;100172.53;;;3.90;100.00
14232;BME280;7200;52.194;9.900;2022-12-07T06:51:42;100165.59;;;3.88;100.00
14232;BME280;7200;52.194;9.900;2022-12-07T06:54:08;100166.47;;;3.90;100.00
14232;BME280;7200;52.194;9.900;2022-12-07T06:56:34;100165.56;;;3.91;100.00
14232;BME280;7200;52.194;9.900;2022-12-07T06:58:59;100162.03;;;3.95;100.00
14232;BME280;7200;52.194;9.900;2022-12-07T07:01:24;100152.53;;;3.89;100.00
14232;BME280;7200;52.194;9.900;2022-12-07T07:03:50;100162.91;;;3.94;100.00
14232;BME280;7200;52.194;9.900;2022-12-07T07:06:15;100159.38;;;3.98;100.00
14232;BME280;7200;52.194;9.900;2022-12-07T07:08:41;100157.69;;;3.96;100.00
14232;BME280;7200;52.194;9.900;2022-12-07T07:11:07;100155.16;;;3.88;100.00
14232;BME280;7200;52.194;9.900;2022-12-07T07:13:33;100152.59;;;3.86;100.00
14232;BME280;7200;52.194;9.900;2022-12-07T07:15:58;100152.53;;;3.89;100.00
14232;BME280;7200;52.194;9.900;2022-12-07T07:18:24;100164.59;;;4.00;100.00
14232;BME280;7200;52.194;9.900;2022-12-07T07:20:51;100168.03;;;4.02;100.00
14232;BME280;7200;52.194;9.900;2022-12-07T07:23:16;100155.91;;;3.98;100.00
14232;BME280;7200;52.194;9.900;2022-12-07T07:25:42;100149.06;;;3.89;100.00
14232;BME280;7200;52.194;9.900;2022-12-07T07:28:07;100150.81;;;3.88;100.00
14232;BME280;7200;52.194;9.900;2022-12-07T07:30:32;100153.44;;;3.88;100.00
14232;BME280;7200;52.194;9.900;2022-12-07T07:32:59;100152.53;;;3.88;100.00
14232;BME280;7200;52.194;9.900;2022-12-07T07:35:25;100156.88;;;3.90;100.00
14232;BME280;7200;52.194;9.900;2022-12-07T07:37:51;100150.81;;;3.90;100.00
14232;BME280;7200;52.194;9.900;2022-12-07T07:40:16;100164.66;;;3.94;100.00
14232;BME280;7200;52.194;9.900;2022-12-07T07:42:41;100154.28;;;3.87;100.00
14232;BME280;7200;52.194;9.900;2022-12-07T07:45:07;100160.34;;;3.89;100.00
14232;BME280;7200;52.194;9.900;2022-12-07T07:47:32;100153.53;;;3.79;100.00
14232;BME280;7200;52.194;9.900;2022-12-07T07:49:58;100147.50;;;3.74;100.00
14232;BME280;7200;52.194;9.900;2022-12-07T07:52:23;100150.13;;;3.74;100.00
14232;BME280;7200;52.194;9.900;2022-12-07T07:54:48;100151.88;;;3.75;100.00
14232;BME280;7200;52.194;9.900;2022-12-07T07:57:14;100159.63;;;3.78;100.00
14232;BME280;7200;52.194;9.900;2022-12-07T07:59:39;100148.44;;;3.72;100.00
14232;BME280;7200;52.194;9.900;2022-12-07T08:02:04;100147.63;;;3.66;100.00
14232;BME280;7200;52.194;9.900;2022-12-07T08:04:29;100158.81;;;3.75;100.00
14232;BME280;7200;52.194;9.900;2022-12-07T08:06:55;100157.13;;;3.69;100.00
14232;BME280;7200;52.194;9.900;2022-12-07T08:09:21;100152.75;;;3.71;100.00
14232;BME280;7200;52.194;9.900;2022-12-07T08:11:46;100150.16;;;3.71;100.00
14232;BME280;7200;52.194;9.900;2022-12-07T08:14:12;100155.34;;;3.74;100.00
14232;BME280;7200;52.194;9.900;2022-12-07T08:16:37;100161.38;;;3.78;100.00
14232;BME280;7200;52.194;9.900;2022-12-07T08:19:04;100166.53;;;3.84;100.00
14232;BME280;7200;52.194;9.900;2022-12-07T08:21:30;100154.50;;;3.74;100.00
14232;BME280;7200;52.194;9.900;2022-12-07T08:23:57;100144.06;;;3.74;100.00
14232;BME280;7200;52.194;9.900;2022-12-07T08:26:22;100145.84;;;3.70;100.00
14232;BME280;7200;52.194;9.900;2022-12-07T08:28:47;100153.56;;;3.78;100.00
14232;BME280;7200;52.194;9.900;2022-12-07T08:31:15;100157.84;;;3.82;100.00
14232;BME280;7200;52.194;9.900;2022-12-07T08:33:41;100158.59;;;3.92;100.00
14232;BME280;7200;52.194;9.900;2022-12-07T08:36:09;100152.59;;;3.86;100.00
14232;BME280;7200;52.194;9.900;2022-12-07T08:38:36;100152.53;;;3.89;100.00
14232;BME280;7200;52.194;9.900;2022-12-07T08:41:01;100137.81;;;3.82;100.00
14232;BME280;7200;52.194;9.900;2022-12-07T08:43:27;100141.34;;;3.80;100.00
14232;BME280;7200;52.194;9.900;2022-12-07T08:46:09;100143.88;;;3.86;100.00
14232;BME280;7200;52.194;9.900;2022-12-07T08:48:38;100155.16;;;3.88;100.00
14232;BME280;7200;52.194;9.900;2022-12-07T08:51:06;100163.84;;;3.90;100.00
14232;BME280;7200;52.194;9.900;2022-12-07T08:53:33;100168.88;;;4.04;100.00
14232;BME280;7200;52.194;9.900;2022-12-07T08:55:59;100168.78;;;4.08;100.00
14232;BME280;7200;52.194;9.900;2022-12-07T08:58:24;100174.94;;;4.04;100.00
14232;BME280;7200;52.194;9.900;2022-12-07T09:00:50;100180.84;;;4.19;100.00
14232;BME280;7200;52.194;9.900;2022-12-07T09:03:15;100171.38;;;4.12;100.00
14232;BME280;7200;52.194;9.900;2022-12-07T09:05:44;100162.72;;;4.08;100.00
14232;BME280;7200;52.194;9.900;2022-12-07T09:08:09;100175.63;;;4.17;100.00
14232;BME280;7200;52.194;9.900;2022-12-07T09:10:34;100166.13;;;4.15;100.00
14232;BME280;7200;52.194;9.900;2022-12-07T09:13:00;100178.94;;;4.30;100.00
14232;BME280;7200;52.194;9.900;2022-12-07T09:15:27;100180.47;;;4.45;100.00
14232;BME280;7200;52.194;9.900;2022-12-07T09:17:53;100178.75;;;4.42;100.00
14232;BME280;7200;52.194;9.900;2022-12-07T09:20:18;100166.50;;;4.46;100.00
14232;BME280;7200;52.194;9.900;2022-12-07T09:22:43;100161.38;;;4.41;100.00
14232;BME280;7200;52.194;9.900;2022-12-07T09:25:09;100151.75;;;4.42;100.00
14232;BME280;7200;52.194;9.900;2022-12-07T09:27:34;100163.84;;;4.49;100.00
14232;BME280;7200;52.194;9.900;2022-12-07T09:29:59;100153.56;;;4.38;100.00
14232;BME280;7200;52.194;9.900;2022-12-07T09:32:25;100141.56;;;4.26;100.00
14232;BME280;7200;52.194;9.900;2022-12-07T09:34:50;100144.13;;;4.29;100.00
14232;BME280;7200;52.194;9.900;2022-12-07T09:37:15;100144.97;;;4.32;100.00
14232;BME280;7200;52.194;9.900;2022-12-07T09:39:41;100149.13;;;4.43;100.00
14232;BME280;7200;52.194;9.900;2022-12-07T09:42:07;100142.22;;;4.41;100.00
14232;BME280;7200;52.194;9.900;2022-12-07T09:44:34;100145.59;;;4.47;100.00
14232;BME280;7200;52.194;9.900;2022-12-07T09:47:01;100127.34;;;4.44;100.00
14232;BME280;7200;52.194;9.900;2022-12-07T09:49:31;100118.88;;;4.32;100.00
14232;BME280;7200;52.194;9.900;2022-12-07T09:54:35;100110.97;;;4.33;100.00
14232;BME280;7200;52.194;9.900;2022-12-07T09:57:02;100094.72;;;4.16;100.00
14232;BME280;7200;52.194;9.900;2022-12-07T09:59:27;100099.06;;;4.17;100.00
14232;BME280;7200;52.194;9.900;2022-12-07T10:01:54;100095.53;;;4.19;100.00
14232;BME280;7200;52.194;9.900;2022-12-07T10:04:22;100082.63;;;4.10;100.00
14232;BME280;7200;52.194;9.900;2022-12-07T10:06:49;100114.59;;;4.26;100.00
14232;BME280;7200;52.194;9.900;2022-12-07T10:09:18;100110.97;;;4.33;100.00
14232;BME280;7200;52.194;9.900;2022-12-07T10:14:28;100119.78;;;4.27;100.00
14232;BME280;7200;52.194;9.900;2022-12-07T10:16:53;100107.63;;;4.26;100.00
14232;BME280;7200;52.194;9.900;2022-12-07T10:19:29;100124.72;;;4.44;100.00
14232;BME280;7200;52.194;9.900;2022-12-07T10:22:09;100114.38;;;4.38;100.00
14232;BME280;7200;52.194;9.900;2022-12-07T10:24:36;100098.00;;;4.28;100.00
14232;BME280;7200;52.194;9.900;2022-12-07T10:27:04;100088.56;;;4.20;100.00
14232;BME280;7200;52.194;9.900;2022-12-07T10:29:36;100125.63;;;4.43;100.00
14232;BME280;7200;52.194;9.900;2022-12-07T10:32:03;100103.34;;;4.22;100.00
14232;BME280;7200;52.194;9.900;2022-12-07T10:34:34;100097.41;;;4.11;100.00
14232;BME280;7200;52.194;9.900;2022-12-07T10:39:51;100096.34;;;4.24;100.00
14232;BME280;7200;52.194;9.900;2022-12-07T10:44:46;100087.66;;;4.22;100.00
14232;BME280;7200;52.194;9.900;2022-12-07T10:47:36;100086.72;;;4.28;100.00
14232;BME280;7200;52.194;9.900;2022-12-07T10:55:54;100088.13;;;4.46;100.00
14232;BME280;7200;52.194;9.900;2022-12-07T10:58:31;100088.94;;;4.49;100.00
14232;BME280;7200;52.194;9.900;2022-12-07T11:04:07;100069.91;;;4.43;100.00
14232;BME280;7200;52.194;9.900;2022-12-07T11:17:32;100071.13;;;4.73;100.00
14232;BME280;7200;52.194;9.900;2022-12-07T11:20:22;100059.91;;;4.66;100.00
14232;BME280;7200;52.194;9.900;2022-12-07T11:34:59;100040.63;;;4.74;100.00
14232;BME280;7200;52.194;9.900;2022-12-07T11:37:33;100036.94;;;4.84;100.00
14232;BME280;7200;52.194;9.900;2022-12-07T11:40:20;100033.34;;;4.90;100.00
14232;BME280;7200;52.194;9.900;2022-12-07T11:43:04;100005.13;;;4.62;100.00
14232;BME280;7200;52.194;9.900;2022-12-07T11:45:37;100021.34;;;4.79;100.00
14232;BME280;7200;52.194;9.900;2022-12-07T11:48:14;100009.31;;;4.71;100.00
14232;BME280;7200;52.194;9.900;2022-12-07T11:50:45;100011.91;;;4.72;100.00
14232;BME280;7200;52.194;9.900;2022-12-07T11:56:34;99994.41;;;4.76;100.00
14232;BME280;7200;52.194;9.900;2022-12-07T11:59:12;99983.88;;;4.80;100.00
14232;BME280;7200;52.194;9.900;2022-12-07T12:06:43;99989.13;;;4.79;100.00
14232;BME280;7200;52.194;9.900;2022-12-07T12:09:20;99975.50;;;4.63;100.00
14232;BME280;7200;52.194;9.900;2022-12-07T12:20:27;100000.16;;;4.93;100.00
14232;BME280;7200;52.194;9.900;2022-12-07T12:23:17;99988.00;;;4.92;100.00
14232;BME280;7200;52.194;9.900;2022-12-07T12:25:48;99973.31;;;4.85;100.00
14232;BME280;7200;52.194;9.900;2022-12-07T12:28:31;99945.59;;;4.78;100.00
14232;BME280;7200;52.194;9.900;2022-12-07T12:33:59;99923.19;;;4.66;100.00
14232;BME280;7200;52.194;9.900;2022-12-07T12:46:57;99924.16;;;5.02;100.00
14232;BME280;7200;52.194;9.900;2022-12-07T12:51:56;99937.59;;;5.26;100.00
14232;BME280;7200;52.194;9.900;2022-12-07T12:54:23;99933.16;;;5.30;100.00
14232;BME280;7200;52.194;9.900;2022-12-07T12:57:10;99930.41;;;5.34;100.00
14232;BME280;7200;52.194;9.900;2022-12-07T12:59:55;99922.53;;;5.36;100.00
14232;BME280;7200;52.194;9.900;2022-12-07T13:02:37;99907.13;;;5.23;100.00
14232;BME280;7200;52.194;9.900;2022-12-07T13:15:54;99897.72;;;5.16;100.00
14232;BME280;7200;52.194;9.900;2022-12-07T13:26:13;99919.94;;;5.36;100.00
14232;BME280;7200;52.194;9.900;2022-12-07T13:28:43;99882.72;;;5.23;100.00
14232;BME280;7200;52.194;9.900;2022-12-07T13:31:56;99895.56;;;5.34;100.00
14232;BME280;7200;52.194;9.900;2022-12-07T13:37:17;99874.00;;;5.24;100.00
14232;BME280;7200;52.194;9.900;2022-12-07T13:39:54;99879.31;;;5.19;100.00
14232;BME280;7200;52.194;9.900;2022-12-07T13:42:29;99876.69;;;5.21;100.00
14232;BME280;7200;52.194;9.900;2022-12-07T13:44:56;99861.16;;;5.13;100.00
14232;BME280;7200;52.194;9.900;2022-12-07T13:47:26;99856.78;;;5.14;100.00
14232;BME280;7200;52.194;9.900;2022-12-07T13:49:56;99859.44;;;5.12;100.00
14232;BME280;7200;52.194;9.900;2022-12-07T13:52:24;99858.72;;;5.07;100.00
14232;BME280;7200;52.194;9.900;2022-12-07T13:55:17;99852.53;;;5.10;100.00
14232;BME280;7200;52.194;9.900;2022-12-07T13:57:44;99848.34;;;5.02;100.00
14232;BME280;7200;52.194;9.900;2022-12-07T14:00:24;99838.03;;;4.96;100.00
14232;BME280;7200;52.194;9.900;2022-12-07T14:03:00;99829.53;;;4.86;100.00
14232;BME280;7200;52.194;9.900;2022-12-07T14:05:31;99821.72;;;4.85;100.00
14232;BME280;7200;52.194;9.900;2022-12-07T14:08:05;99835.59;;;4.88;100.00
14232;BME280;7200;52.194;9.900;2022-12-07T14:10:33;99841.53;;;4.95;100.00
14232;BME280;7200;52.194;9.900;2022-12-07T14:13:01;99842.63;;;4.85;100.00
14232;BME280;7200;52.194;9.900;2022-12-07T14:15:32;99843.63;;;4.79;100.00
14232;BME280;7200;52.194;9.900;2022-12-07T14:17:59;99852.22;;;4.86;100.00
14232;BME280;7200;52.194;9.900;2022-12-07T14:22:58;99848.88;;;4.79;100.00
14232;BME280;7200;52.194;9.900;2022-12-07T14:25:27;99861.88;;;4.82;100.00
14232;BME280;7200;52.194;9.900;2022-12-07T14:27:59;99855.09;;;4.74;100.00
14232;BME280;7200;52.194;9.900;2022-12-07T14:30:28;99859.63;;;4.65;100.00
14232;BME280;7200;52.194;9.900;2022-12-07T14:33:02;99866.66;;;4.62;100.00
14232;BME280;7200;52.194;9.900;2022-12-07T14:35:28;99860.69;;;4.55;100.00
14232;BME280;7200;52.194;9.900;2022-12-07T14:37:53;99871.81;;;4.65;100.00
14232;BME280;7200;52.194;9.900;2022-12-07T14:40:24;99858.09;;;4.55;100.00
14232;BME280;7200;52.194;9.900;2022-12-07T14:43:00;99860.56;;;4.61;100.00
14232;BME280;7200;52.194;9.900;2022-12-07T14:45:26;99858.94;;;4.56;100.00
14232;BME280;7200;52.194;9.900;2022-12-07T14:47:52;99863.13;;;4.64;100.00
14232;BME280;7200;52.194;9.900;2022-12-07T14:50:19;99867.53;;;4.61;100.00
14232;BME280;7200;52.194;9.900;2022-12-07T14:52:48;99861.44;;;4.62;100.00
14232;BME280;7200;52.194;9.900;2022-12-07T14:55:30;99862.25;;;4.64;100.00
14232;BME280;7200;52.194;9.900;2022-12-07T14:57:56;99855.47;;;4.55;100.00
14232;BME280;7200;52.194;9.900;2022-12-07T15:00:23;99853.69;;;4.57;100.00
14232;BME280;7200;52.194;9.900;2022-12-07T15:02:50;99852.06;;;4.52;100.00
14232;BME280;7200;52.194;9.900;2022-12-07T15:05:16;99852.03;;;4.53;100.00
14232;BME280;7200;52.194;9.900;2022-12-07T15:07:43;99853.81;;;4.51;100.00
14232;BME280;7200;52.194;9.900;2022-12-07T15:12:41;99843.63;;;4.39;100.00
14232;BME280;7200;52.194;9.900;2022-12-07T15:15:06;99843.72;;;4.34;100.00